Time;durP1;ratioP1;P1;durP2;ratioP2;P2;SDS_P1;SDS_P2;PMS_P1;PMS_P2;Temp;Humidity;BMP_temperature;BMP_pressure;BME280_temperature;BME280_humidity;BME280_pressure;Samples;Min_cycle;Max_cycle;Signal;HPM_P1;HPM_P2
2024/02/07 00:02:08;;;;;;;5.57;3.50;;;8.30;99.90;;;;;;5012065;28;20726;-84
2024/02/07 00:04:56;;;;;;;7.13;3.20;;;8.60;99.90;;;;;;5012497;28;20192;-84
2024/02/07 00:07:45;;;;;;;6.50;3.13;;;8.40;99.90;;;;;;4997991;28;20256;-84
2024/02/07 00:10:33;;;;;;;7.27;3.13;;;8.40;99.90;;;;;;4998453;28;20229;-85
2024/02/07 00:13:20;;;;;;;4.93;3.33;;;8.50;99.90;;;;;;5011796;28;20593;-85
2024/02/07 00:16:08;;;;;;;7.47;3.10;;;8.50;99.90;;;;;;5012414;28;20202;-85
2024/02/07 00:18:56;;;;;;;4.53;2.67;;;8.60;99.90;;;;;;5011417;28;20556;-84
2024/02/07 00:21:44;;;;;;;8.60;3.63;;;8.70;99.90;;;;;;5010603;28;20198;-84
2024/02/07 00:24:31;;;;;;;7.53;3.20;;;8.60;99.90;;;;;;4997402;28;20200;-84
2024/02/07 00:27:18;;;;;;;6.07;3.00;;;8.70;99.90;;;;;;5010417;28;20333;-84
2024/02/07 00:30:06;;;;;;;4.87;3.07;;;8.70;99.90;;;;;;5011711;28;20219;-84
2024/02/07 00:32:54;;;;;;;5.40;2.93;;;8.80;99.90;;;;;;4997740;28;20204;-84
2024/02/07 00:35:41;;;;;;;7.03;3.13;;;8.80;99.90;;;;;;5010584;28;20196;-84
2024/02/07 00:38:30;;;;;;;6.60;3.00;;;8.80;99.90;;;;;;5011197;28;20686;-84
2024/02/07 00:41:22;;;;;;;4.83;2.70;;;8.90;99.90;;;;;;4998200;28;20192;-84
2024/02/07 00:44:09;;;;;;;6.03;2.70;;;8.90;99.90;;;;;;4997757;28;20684;-83
2024/02/07 00:46:57;;;;;;;5.23;2.70;;;9.00;99.90;;;;;;5011037;28;20196;-83
2024/02/07 00:49:44;;;;;;;6.60;2.63;;;9.00;99.90;;;;;;5014587;28;20305;-84
2024/02/07 00:52:32;;;;;;;5.60;2.40;;;8.90;99.90;;;;;;5015877;28;20272;-85
2024/02/07 00:55:20;;;;;;;7.40;2.87;;;8.90;99.90;;;;;;5015284;28;20298;-84
2024/02/07 00:58:09;;;;;;;6.20;2.77;;;8.90;99.90;;;;;;5014529;28;20212;-85
2024/02/07 01:00:57;;;;;;;5.60;2.57;;;8.90;99.90;;;;;;5000997;28;20626;-85
2024/02/07 01:03:44;;;;;;;6.77;2.47;;;9.10;99.90;;;;;;5015698;28;20692;-84
2024/02/07 01:06:32;;;;;;;4.77;2.50;;;9.00;99.90;;;;;;5014848;28;20223;-85
2024/02/07 01:09:20;;;;;;;5.27;3.07;;;9.00;99.90;;;;;;5014823;28;20202;-85
2024/02/07 01:12:08;;;;;;;6.03;2.90;;;9.00;99.90;;;;;;5000964;28;20233;-85
2024/02/07 01:14:56;;;;;;;5.10;2.50;;;8.90;99.90;;;;;;5014464;28;20230;-85
2024/02/07 01:17:43;;;;;;;5.50;2.57;;;8.90;99.90;;;;;;5014836;28;20659;-85
2024/02/07 01:20:34;;;;;;;5.93;2.30;;;8.90;99.90;;;;;;4999324;28;20290;-85
2024/02/07 01:23:21;;;;;;;4.63;2.30;;;8.90;99.90;;;;;;5013950;28;20200;-85
2024/02/07 01:26:09;;;;;;;5.97;2.63;;;8.90;99.90;;;;;;5000045;28;20622;-85
2024/02/07 01:28:57;;;;;;;3.80;2.60;;;8.90;99.90;;;;;;5013432;28;20195;-85
2024/02/07 01:31:46;;;;;;;5.10;2.60;;;8.90;99.90;;;;;;5014059;28;20645;-85
2024/02/07 01:34:34;;;;;;;5.73;2.60;;;9.00;99.90;;;;;;5000043;28;20203;-85
2024/02/07 01:37:24;;;;;;;4.03;2.67;;;9.00;99.90;;;;;;5013454;28;20243;-85
2024/02/07 01:40:12;;;;;;;5.33;2.70;;;8.90;99.90;;;;;;5014439;28;20674;-85
2024/02/07 01:43:01;;;;;;;4.73;2.37;;;8.90;99.90;;;;;;5013641;28;20687;-84
2024/02/07 01:45:48;;;;;;;4.13;2.63;;;8.90;99.90;;;;;;4999787;28;20192;-85
2024/02/07 01:48:36;;;;;;;5.80;2.60;;;9.00;99.90;;;;;;5013700;28;20588;-85
2024/02/07 01:51:24;;;;;;;4.23;2.47;;;9.00;99.90;;;;;;5013141;28;20239;-85
2024/02/07 01:54:12;;;;;;;5.70;2.47;;;9.00;99.90;;;;;;5000261;28;20491;-85
2024/02/07 01:57:01;;;;;;;5.30;2.20;;;9.00;99.90;;;;;;5000028;28;20216;-85
2024/02/07 01:59:49;;;;;;;4.17;2.40;;;9.00;99.90;;;;;;5014214;28;20195;-85
2024/02/07 02:02:38;;;;;;;5.73;2.40;;;9.10;99.90;;;;;;4998478;28;20200;-85
2024/02/07 02:05:26;;;;;;;6.87;2.53;;;9.00;99.90;;;;;;5013724;28;20668;-85
2024/02/07 02:08:13;;;;;;;4.97;2.33;;;9.10;99.90;;;;;;5014177;28;20234;-85
2024/02/07 02:11:04;;;;;;;4.83;2.40;;;9.10;99.90;;;;;;4998280;28;20218;-84
2024/02/07 02:13:54;;;;;;;4.17;2.10;;;9.10;99.90;;;;;;5014363;28;20209;-85
2024/02/07 02:16:41;;;;;;;3.87;2.30;;;9.10;99.90;;;;;;4999160;28;20415;-85
2024/02/07 02:19:29;;;;;;;6.30;2.20;;;9.20;99.90;;;;;;4999860;28;20210;-86
2024/02/07 02:22:39;;;;;;;5.20;2.17;;;9.20;99.90;;;;;;5014247;28;20196;-85
2024/02/07 02:25:45;;;;;;;3.43;2.23;;;9.10;99.90;;;;;;4999067;28;20238;-86
2024/02/07 02:28:45;;;;;;;6.17;2.40;;;9.00;99.90;;;;;;5013556;28;20192;-84
2024/02/07 02:31:36;;;;;;;5.40;2.27;;;8.90;99.90;;;;;;4998837;28;20226;-85
2024/02/07 02:34:27;;;;;;;5.27;2.20;;;8.90;99.90;;;;;;5013524;28;20210;-85
2024/02/07 02:37:15;;;;;;;3.93;2.27;;;8.90;99.90;;;;;;4999500;28;20211;-85
2024/02/07 02:40:05;;;;;;;3.83;2.33;;;8.90;99.90;;;;;;5013868;28;20195;-85
2024/02/07 02:42:53;;;;;;;6.03;2.23;;;9.00;99.90;;;;;;5012019;28;20273;-85
2024/02/07 02:45:41;;;;;;;5.00;2.20;;;9.00;99.90;;;;;;5012614;28;20270;-85
2024/02/07 02:48:29;;;;;;;3.97;2.10;;;9.00;99.90;;;;;;4997566;28;20777;-85
2024/02/07 02:51:17;;;;;;;4.30;2.00;;;9.10;99.90;;;;;;5012244;28;20278;-85
2024/02/07 02:54:06;;;;;;;3.83;2.30;;;9.10;99.90;;;;;;5012516;28;20203;-85
2024/02/07 02:56:59;;;;;;;4.73;1.80;;;9.20;99.90;;;;;;4997327;28;20311;-85
2024/02/07 02:59:48;;;;;;;3.47;2.20;;;9.20;99.90;;;;;;4999057;28;20400;-85
2024/02/07 03:02:36;;;;;;;3.90;2.00;;;9.20;99.90;;;;;;5012946;28;20218;-85
2024/02/07 03:08:39;;;;;;;6.43;2.00;;;9.30;99.90;;;;;;5012329;28;20663;-85
2024/02/07 03:11:27;;;;;;;4.17;1.90;;;9.30;99.90;;;;;;5011498;28;20229;-85
2024/02/07 03:14:14;;;;;;;4.30;1.80;;;9.30;99.90;;;;;;5013552;28;20260;-85
2024/02/07 03:17:03;;;;;;;3.13;1.80;;;9.30;99.90;;;;;;5013409;28;20203;-85
2024/02/07 03:19:50;;;;;;;6.03;2.20;;;9.40;99.90;;;;;;5018298;28;20200;-85
2024/02/07 03:22:38;;;;;;;3.27;1.90;;;9.40;99.90;;;;;;5015987;28;20204;-86
2024/02/07 03:25:26;;;;;;;2.33;1.80;;;9.40;99.90;;;;;;5004030;28;20568;-85
2024/02/07 03:28:15;;;;;;;3.17;1.90;;;9.40;99.90;;;;;;4988578;28;20574;-85
2024/02/07 03:31:04;;;;;;;4.00;1.97;;;9.40;99.90;;;;;;4998751;28;20230;-85
2024/02/07 03:33:53;;;;;;;5.30;2.07;;;9.40;99.90;;;;;;5011979;28;20236;-84
2024/02/07 03:36:41;;;;;;;7.80;1.90;;;9.70;99.90;;;;;;4998202;28;20207;-84
2024/02/07 03:39:29;;;;;;;4.97;1.87;;;9.50;99.90;;;;;;5011598;28;20698;-85
2024/02/07 03:42:16;;;;;;;4.27;1.83;;;9.40;99.90;;;;;;5012758;28;20215;-86
2024/02/07 03:45:06;;;;;;;4.13;2.03;;;9.40;99.90;;;;;;5012368;28;20189;-85
2024/02/07 03:47:54;;;;;;;2.87;1.80;;;9.30;99.90;;;;;;4997271;28;20203;-85
2024/02/07 03:50:42;;;;;;;4.60;2.10;;;9.30;99.90;;;;;;5012651;28;20215;-86
2024/02/07 03:53:31;;;;;;;5.53;2.00;;;9.20;99.90;;;;;;4997010;28;20666;-85
2024/02/07 03:56:18;;;;;;;6.43;2.03;;;9.10;99.90;;;;;;5011535;28;20199;-85
2024/02/07 03:59:07;;;;;;;5.77;1.90;;;9.00;99.90;;;;;;5013035;28;20200;-85
2024/02/07 04:01:56;;;;;;;4.40;2.23;;;9.00;99.90;;;;;;5011910;28;20258;-85
2024/02/07 04:04:44;;;;;;;3.87;2.03;;;8.90;99.90;;;;;;5010967;28;20575;-85
2024/02/07 04:07:32;;;;;;;6.93;2.27;;;8.90;99.90;;;;;;5010564;28;20719;-85
2024/02/07 04:10:23;;;;;;;4.20;2.20;;;8.70;99.90;;;;;;5012322;28;20220;-85
2024/02/07 05:17:40;;;;;;;4.63;2.10;;;8.50;99.90;;;;;;5014330;28;20193;-85
2024/02/07 05:20:27;;;;;;;4.17;2.10;;;8.50;99.90;;;;;;5013845;28;20211;-86
2024/02/07 05:23:22;;;;;;;2.10;1.17;;;8.40;99.90;;;;;;5000895;28;20201;-85
2024/02/07 05:26:10;;;;;;;1.50;0.77;;;8.00;99.90;;;;;;5000709;28;20206;-82
2024/02/07 05:29:02;;;;;;;2.50;0.90;;;7.20;99.90;;;;;;5014678;28;20217;-82
2024/02/07 05:31:50;;;;;;;2.40;0.90;;;6.90;99.90;;;;;;5000028;28;20224;-82
2024/02/07 05:34:41;;;;;;;1.90;0.70;;;6.50;99.90;;;;;;5013442;28;20208;-81
2024/02/07 05:37:30;;;;;;;1.00;0.60;;;6.30;99.90;;;;;;5013562;28;20335;-82
2024/02/07 05:40:17;;;;;;;0.87;0.60;;;6.20;99.90;;;;;;4999363;28;20203;-82
2024/02/07 05:43:05;;;;;;;0.90;0.57;;;6.20;99.90;;;;;;5014884;28;20672;-82
2024/02/07 05:45:55;;;;;;;0.73;0.60;;;5.80;99.90;;;;;;5013180;28;20590;-82
2024/02/07 05:48:42;;;;;;;1.87;0.70;;;5.60;99.90;;;;;;5013669;28;20190;-82
2024/02/07 05:51:30;;;;;;;1.27;0.53;;;5.50;99.90;;;;;;5013204;28;20717;-83
2024/02/07 05:54:17;;;;;;;0.40;0.40;;;5.40;99.90;;;;;;5014770;28;20227;-83
2024/02/07 05:57:05;;;;;;;0.70;0.60;;;5.30;99.90;;;;;;5014449;28;20382;-82
2024/02/07 05:59:52;;;;;;;1.77;0.60;;;5.20;99.90;;;;;;5014099;28;20211;-82
2024/02/07 06:02:40;;;;;;;0.97;0.60;;;5.20;99.90;;;;;;4998979;28;20239;-82
2024/02/07 06:05:27;;;;;;;1.27;0.50;;;5.20;99.90;;;;;;5013779;28;20197;-82
2024/02/07 06:08:15;;;;;;;0.77;0.40;;;5.30;99.90;;;;;;5013041;28;20675;-83
2024/02/07 06:11:03;;;;;;;1.53;0.50;;;5.00;99.90;;;;;;5012907;28;20222;-82
2024/02/07 06:13:51;;;;;;;0.87;0.40;;;5.00;99.90;;;;;;4999955;28;20208;-82
2024/02/07 06:16:39;;;;;;;0.63;0.50;;;4.90;99.90;;;;;;5014444;28;20548;-80
2024/02/07 06:19:31;;;;;;;0.50;0.50;;;4.80;99.90;;;;;;5000641;28;20193;-82
2024/02/07 06:22:18;;;;;;;0.53;0.50;;;4.90;99.90;;;;;;5000483;28;20197;-82
2024/02/07 06:25:06;;;;;;;0.60;0.60;;;4.70;99.90;;;;;;5014180;28;20200;-82
2024/02/07 06:27:54;;;;;;;0.70;0.60;;;4.60;99.90;;;;;;5013478;28;20699;-82
2024/02/07 06:30:41;;;;;;;0.70;0.70;;;4.60;99.90;;;;;;4998018;28;20209;-82
2024/02/07 06:33:29;;;;;;;0.77;0.60;;;4.60;99.90;;;;;;4999088;28;20198;-82
2024/02/07 06:36:16;;;;;;;3.03;0.73;;;4.60;99.90;;;;;;5013044;28;20193;-81
2024/02/07 06:39:04;;;;;;;1.27;0.90;;;4.60;99.90;;;;;;5000125;28;20233;-82
2024/02/07 06:41:52;;;;;;;1.17;0.97;;;4.60;99.90;;;;;;5013212;28;20279;-82
2024/02/07 06:44:39;;;;;;;2.53;0.80;;;4.70;99.90;;;;;;5012877;28;20272;-81
2024/02/07 06:47:26;;;;;;;1.77;1.00;;;4.70;99.90;;;;;;5012210;28;20188;-81
2024/02/07 06:50:14;;;;;;;1.13;0.77;;;4.60;99.90;;;;;;5012135;28;20199;-82
2024/02/07 06:53:06;;;;;;;1.00;0.70;;;4.80;99.90;;;;;;4997958;28;20315;-81
2024/02/07 06:55:57;;;;;;;0.70;0.70;;;4.40;99.90;;;;;;4999561;28;20225;-81
2024/02/07 06:58:47;;;;;;;1.13;0.80;;;4.30;99.90;;;;;;5012552;28;20201;-82
2024/02/07 07:01:41;;;;;;;1.07;0.80;;;4.30;99.90;;;;;;4999087;28;20673;-81
2024/02/07 07:04:40;;;;;;;1.10;0.90;;;4.20;99.90;;;;;;4998965;28;20670;-82
2024/02/07 07:07:28;;;;;;;0.87;0.83;;;4.20;99.90;;;;;;4998153;28;20239;-82
2024/02/07 07:10:16;;;;;;;1.40;0.80;;;4.10;99.90;;;;;;5011542;28;20199;-82
2024/02/07 07:13:03;;;;;;;1.00;0.70;;;4.10;99.90;;;;;;5012498;28;20230;-82
2024/02/07 07:15:50;;;;;;;0.70;0.70;;;3.90;99.90;;;;;;4999280;28;20196;-82
2024/02/07 07:18:38;;;;;;;1.33;0.83;;;4.00;99.90;;;;;;5011589;28;20192;-82
2024/02/07 07:21:27;;;;;;;0.70;0.70;;;3.70;99.90;;;;;;5012091;28;20196;-80
2024/02/07 07:24:18;;;;;;;0.77;0.77;;;3.70;99.90;;;;;;4998655;28;20200;-84
2024/02/07 07:27:11;;;;;;;1.60;0.70;;;3.60;99.90;;;;;;5011073;28;20220;-81
2024/02/07 07:29:58;;;;;;;1.67;0.80;;;3.60;99.90;;;;;;5011006;28;20278;-82
2024/02/07 07:32:50;;;;;;;1.10;0.97;;;3.60;99.90;;;;;;5012199;28;20312;-81
2024/02/07 07:35:37;;;;;;;4.13;1.03;;;3.90;99.90;;;;;;5012780;28;20215;-81
2024/02/07 07:38:25;;;;;;;3.13;1.10;;;3.70;99.90;;;;;;5013242;28;20196;-82
2024/02/07 07:41:13;;;;;;;1.10;0.90;;;3.50;99.90;;;;;;5013207;28;20223;-81
2024/02/07 07:44:00;;;;;;;1.10;1.00;;;3.40;99.90;;;;;;5012077;28;20669;-80
2024/02/07 07:46:51;;;;;;;1.13;1.00;;;3.30;99.90;;;;;;5011902;28;20291;-82
2024/02/07 07:49:38;;;;;;;1.77;0.83;;;3.60;99.90;;;;;;5012648;28;20199;-82
2024/02/07 07:52:26;;;;;;;2.63;1.00;;;3.30;99.90;;;;;;4998036;28;20241;-82
2024/02/07 07:55:17;;;;;;;1.10;1.00;;;3.30;99.90;;;;;;5012529;28;20206;-82
2024/02/07 07:58:17;;;;;;;1.63;1.10;;;3.20;99.90;;;;;;4998195;28;20212;-82
2024/02/07 08:01:05;;;;;;;3.87;1.20;;;3.20;99.90;;;;;;5013302;28;20200;-82
2024/02/07 08:03:53;;;;;;;2.53;1.00;;;3.20;99.90;;;;;;4996845;28;20190;-82
2024/02/07 08:06:47;;;;;;;4.20;1.20;;;3.10;99.90;;;;;;4991084;28;20227;-82
2024/02/07 08:09:53;;;;;;;2.13;1.30;;;3.10;99.90;;;;;;4991676;28;20214;-79
2024/02/07 08:12:50;;;;;;;5.63;1.40;;;3.00;99.90;;;;;;4992132;28;20243;-80
2024/02/07 08:15:38;;;;;;;3.17;1.10;;;3.10;99.90;;;;;;4992338;28;20204;-79
2024/02/07 08:18:26;;;;;;;2.17;1.13;;;2.90;99.90;;;;;;4992107;28;20616;-78
2024/02/07 08:21:14;;;;;;;3.67;1.33;;;3.00;99.90;;;;;;4992207;28;20207;-80
2024/02/07 08:24:01;;;;;;;4.10;1.27;;;3.00;99.90;;;;;;4991706;28;20200;-81
2024/02/07 08:26:51;;;;;;;1.80;1.23;;;3.10;99.90;;;;;;5004107;28;20338;-79
2024/02/07 08:29:39;;;;;;;4.43;1.20;;;3.10;99.90;;;;;;4992694;28;20204;-78
2024/02/07 08:32:26;;;;;;;3.00;1.40;;;3.10;99.90;;;;;;4991318;28;20233;-79
2024/02/07 08:35:14;;;;;;;4.23;1.10;;;3.10;99.90;;;;;;4992646;28;20642;-79
2024/02/07 08:38:02;;;;;;;3.70;1.40;;;3.20;99.90;;;;;;4990276;28;20263;-79
2024/02/07 08:40:54;;;;;;;4.33;1.60;;;3.10;99.90;;;;;;4992571;28;20226;-80
2024/02/07 08:43:45;;;;;;;2.67;1.47;;;3.10;99.90;;;;;;4990885;28;20233;-78
2024/02/07 08:46:35;;;;;;;3.67;1.37;;;3.10;99.90;;;;;;4991903;28;20270;-77
2024/02/07 08:49:23;;;;;;;3.37;1.30;;;3.20;99.90;;;;;;4991417;28;20287;-78
2024/02/07 08:52:11;;;;;;;3.53;1.30;;;3.10;99.90;;;;;;4991808;28;20596;-78
2024/02/07 08:54:58;;;;;;;2.20;1.27;;;3.20;99.90;;;;;;4990577;28;20204;-79
2024/02/07 08:57:49;;;;;;;2.13;1.20;;;3.30;99.90;;;;;;4991365;28;20219;-78
2024/02/07 09:00:42;;;;;;;3.30;1.60;;;3.30;99.90;;;;;;4991282;28;20288;-79
2024/02/07 09:03:38;;;;;;;3.83;1.30;;;3.30;99.90;;;;;;4990849;28;20263;-77
2024/02/07 09:06:29;;;;;;;2.67;1.20;;;3.30;99.90;;;;;;5002579;28;20239;-79
2024/02/07 09:09:19;;;;;;;2.67;1.40;;;3.30;99.90;;;;;;5015384;28;20205;-80
2024/02/07 09:12:11;;;;;;;2.27;1.23;;;3.30;99.90;;;;;;5016235;28;20231;-80
2024/02/07 09:14:59;;;;;;;2.70;1.40;;;3.30;99.90;;;;;;5000375;28;20199;-80
2024/02/07 09:17:46;;;;;;;2.83;1.30;;;3.40;99.90;;;;;;5015401;28;20202;-79
2024/02/07 09:20:34;;;;;;;3.33;1.40;;;3.40;99.90;;;;;;5014556;28;20238;-78
2024/02/07 09:23:24;;;;;;;3.10;1.40;;;3.40;99.90;;;;;;5014671;28;20224;-79
2024/02/07 09:26:12;;;;;;;3.77;1.90;;;3.40;99.90;;;;;;5000769;28;20201;-79
2024/02/07 09:29:00;;;;;;;4.93;1.77;;;3.30;99.90;;;;;;5013492;28;20219;-78
2024/02/07 09:31:47;;;;;;;4.03;1.80;;;3.30;99.90;;;;;;5013830;28;20331;-79
2024/02/07 09:34:35;;;;;;;3.67;1.83;;;3.40;99.90;;;;;;5013838;28;20738;-78
2024/02/07 09:37:26;;;;;;;3.37;1.60;;;3.40;99.90;;;;;;4987427;28;20234;-79
2024/02/07 09:40:13;;;;;;;4.27;1.60;;;3.40;99.90;;;;;;5015029;28;20572;-80
2024/02/07 09:43:03;;;;;;;3.27;1.57;;;3.40;99.90;;;;;;4999923;28;20259;-79
2024/02/07 09:45:59;;;;;;;4.40;1.30;;;3.40;99.90;;;;;;5014957;28;20196;-80
2024/02/07 09:48:49;;;;;;;4.30;1.40;;;3.50;99.90;;;;;;5000466;28;20208;-81
2024/02/07 09:51:37;;;;;;;3.73;1.60;;;3.50;99.90;;;;;;5015308;28;20196;-79
2024/02/07 09:54:25;;;;;;;3.67;1.70;;;3.50;99.90;;;;;;5013228;28;20297;-79
2024/02/07 09:57:17;;;;;;;4.10;1.60;;;3.50;99.90;;;;;;4998943;28;20215;-79
2024/02/07 10:00:06;;;;;;;3.17;1.47;;;3.50;99.90;;;;;;5013856;28;20204;-80
2024/02/07 10:02:54;;;;;;;5.40;1.73;;;3.50;99.90;;;;;;4999533;28;20235;-80
2024/02/07 10:05:53;;;;;;;3.63;1.63;;;3.60;99.90;;;;;;5000206;28;20235;-80
2024/02/07 10:08:48;;;;;;;3.37;1.50;;;3.60;99.90;;;;;;5014531;28;20213;-79
2024/02/07 10:11:37;;;;;;;3.33;1.70;;;3.60;99.90;;;;;;5013862;28;20223;-78
2024/02/07 10:14:28;;;;;;;2.63;1.63;;;3.60;99.90;;;;;;5000002;28;20200;-80
2024/02/07 10:17:16;;;;;;;3.50;1.80;;;3.60;99.90;;;;;;4999752;28;20198;-79
2024/02/07 10:20:10;;;;;;;3.90;1.80;;;3.60;99.90;;;;;;5013255;28;20574;-81
2024/02/07 10:22:57;;;;;;;2.93;1.80;;;3.60;99.90;;;;;;5014231;28;20223;-81
2024/02/07 10:25:53;;;;;;;4.33;1.90;;;3.80;99.90;;;;;;5014226;28;20775;-81
2024/02/07 10:28:40;;;;;;;2.60;1.80;;;3.70;99.90;;;;;;4998387;28;20192;-79
2024/02/07 10:31:28;;;;;;;3.83;1.87;;;3.70;99.90;;;;;;5013463;28;20677;-81
2024/02/07 10:34:19;;;;;;;3.63;2.10;;;3.70;99.90;;;;;;5017641;28;20565;-81
2024/02/07 10:37:07;;;;;;;5.57;2.33;;;3.80;99.90;;;;;;5014999;28;20197;-81
2024/02/07 10:40:04;;;;;;;4.57;2.30;;;3.80;99.90;;;;;;5013142;28;20188;-79
2024/02/07 10:42:57;;;;;;;4.63;1.87;;;3.90;99.90;;;;;;5012748;28;20218;-80
2024/02/07 10:45:44;;;;;;;3.23;2.10;;;3.90;99.90;;;;;;4999391;28;20192;-80
2024/02/07 10:48:33;;;;;;;3.63;2.20;;;4.10;99.90;;;;;;4998664;28;20196;-80
2024/02/07 10:51:20;;;;;;;5.07;2.20;;;3.90;99.90;;;;;;4999237;28;20188;-81
2024/02/07 10:54:08;;;;;;;3.73;2.20;;;3.80;99.90;;;;;;4998065;28;20196;-80
2024/02/07 10:56:57;;;;;;;5.13;1.90;;;3.80;99.90;;;;;;4997880;28;20669;-79
2024/02/07 10:59:46;;;;;;;6.23;2.30;;;3.90;99.90;;;;;;5013047;28;20200;-79
2024/02/07 11:02:34;;;;;;;6.53;2.40;;;3.90;99.90;;;;;;4998972;28;20207;-79
2024/02/07 11:05:24;;;;;;;5.70;2.23;;;3.90;99.90;;;;;;5012691;28;20208;-81
2024/02/07 11:08:11;;;;;;;5.57;2.60;;;4.10;99.90;;;;;;5012879;28;20217;-79
2024/02/07 11:11:00;;;;;;;6.83;3.10;;;4.10;99.90;;;;;;4998202;28;20490;-78
2024/02/07 11:13:52;;;;;;;5.27;2.20;;;4.00;99.90;;;;;;4998671;28;20278;-80
2024/02/07 11:16:39;;;;;;;8.50;2.50;;;4.00;99.90;;;;;;5011774;28;20672;-79
2024/02/07 11:19:27;;;;;;;6.03;2.30;;;4.10;99.90;;;;;;5012143;28;20204;-80
2024/02/07 11:22:24;;;;;;;4.20;2.30;;;4.10;99.90;;;;;;4998026;28;20620;-80
2024/02/07 11:25:19;;;;;;;6.80;2.20;;;4.10;99.90;;;;;;4999111;28;20207;-80
2024/02/07 11:28:08;;;;;;;7.10;2.37;;;4.10;99.90;;;;;;4997435;28;20296;-81
2024/02/07 11:30:58;;;;;;;8.70;2.33;;;4.10;99.90;;;;;;5013696;28;20216;-80
2024/02/07 11:33:51;;;;;;;5.87;2.40;;;4.10;99.90;;;;;;5011745;28;20224;-80
2024/02/07 11:36:40;;;;;;;4.97;2.10;;;4.10;99.90;;;;;;5012341;28;20278;-78
2024/02/07 11:39:38;;;;;;;6.60;2.60;;;4.20;99.90;;;;;;5012182;28;20621;-78
2024/02/07 11:42:26;;;;;;;7.40;2.20;;;4.20;99.90;;;;;;5012019;28;20217;-79
2024/02/07 11:45:15;;;;;;;5.87;2.33;;;4.20;99.90;;;;;;4997987;28;20203;-79
2024/02/07 11:48:03;;;;;;;5.53;2.60;;;4.20;99.90;;;;;;5011792;28;20564;-81
2024/02/07 11:50:52;;;;;;;9.80;2.70;;;4.20;99.90;;;;;;4998386;28;20200;-80
2024/02/07 11:53:41;;;;;;;5.57;2.30;;;4.20;99.90;;;;;;4998136;28;20706;-81
2024/02/07 11:56:30;;;;;;;7.23;2.63;;;4.20;99.90;;;;;;4998736;28;20303;-80
2024/02/07 11:59:17;;;;;;;7.70;2.73;;;4.30;99.90;;;;;;5012584;28;20197;-80
2024/02/07 12:02:05;;;;;;;8.83;2.73;;;4.30;99.90;;;;;;4998084;28;20283;-82
2024/02/07 12:04:53;;;;;;;9.53;2.77;;;4.30;99.90;;;;;;5010861;28;20503;-80
2024/02/07 12:07:42;;;;;;;10.20;2.63;;;4.30;99.90;;;;;;4997919;28;20199;-80
2024/02/07 12:10:29;;;;;;;9.83;2.73;;;4.20;99.90;;;;;;5012012;28;20197;-80
2024/02/07 12:13:16;;;;;;;4.33;2.50;;;4.20;99.90;;;;;;4997770;28;20231;-78
2024/02/07 12:16:06;;;;;;;8.23;2.63;;;4.20;99.90;;;;;;5011547;28;20196;-77
2024/02/07 12:18:54;;;;;;;6.27;2.40;;;4.20;99.90;;;;;;5012762;28;20197;-78
2024/02/07 12:21:43;;;;;;;9.53;3.10;;;4.30;99.90;;;;;;5010983;28;20568;-78
2024/02/07 12:24:31;;;;;;;6.27;2.37;;;4.30;99.90;;;;;;5011231;28;20684;-79
2024/02/07 12:27:19;;;;;;;8.43;2.40;;;4.30;99.90;;;;;;4996889;28;20231;-80
2024/02/07 12:30:13;;;;;;;7.30;2.60;;;4.30;99.90;;;;;;5011396;28;20657;-81
2024/02/07 12:33:00;;;;;;;13.70;2.87;;;4.30;99.90;;;;;;5012513;28;20318;-80
2024/02/07 12:35:59;;;;;;;4.93;2.70;;;4.30;99.90;;;;;;4998718;28;20254;-80
2024/02/07 12:38:47;;;;;;;8.70;2.60;;;4.30;99.90;;;;;;4998081;28;20254;-81
2024/02/07 12:41:35;;;;;;;6.43;2.80;;;4.40;99.90;;;;;;4998126;28;20576;-81
2024/02/07 12:44:25;;;;;;;6.57;2.77;;;4.40;99.90;;;;;;5013567;28;20336;-80
2024/02/07 12:47:14;;;;;;;6.23;2.67;;;4.40;99.90;;;;;;5018015;28;20619;-79
2024/02/07 12:50:02;;;;;;;8.47;3.13;;;4.50;99.90;;;;;;5020623;28;20205;-79
2024/02/07 12:52:50;;;;;;;7.77;2.80;;;4.50;99.90;;;;;;5005470;28;20225;-80
2024/02/07 12:55:37;;;;;;;8.07;2.90;;;4.50;99.90;;;;;;5000862;28;20329;-79
2024/02/07 12:58:24;;;;;;;9.90;3.47;;;4.50;99.90;;;;;;5001932;28;20218;-81
2024/02/07 13:01:18;;;;;;;10.37;3.20;;;4.50;99.90;;;;;;5015888;28;20276;-81
2024/02/07 13:04:08;;;;;;;7.53;2.80;;;4.50;99.90;;;;;;5014678;28;20566;-82
2024/02/07 13:06:55;;;;;;;11.20;3.23;;;4.60;99.90;;;;;;5015947;28;20234;-81
2024/02/07 13:09:44;;;;;;;7.37;3.00;;;4.60;99.90;;;;;;5002939;28;20625;-81
2024/02/07 13:12:33;;;;;;;11.23;2.97;;;4.60;99.90;;;;;;5000764;28;20716;-81
2024/02/07 13:15:20;;;;;;;7.83;2.90;;;4.60;99.90;;;;;;5016129;28;20230;-81
2024/02/07 13:18:08;;;;;;;7.90;2.87;;;4.60;99.90;;;;;;5014431;28;20749;-80
2024/02/07 13:21:05;;;;;;;8.80;2.67;;;4.60;99.90;;;;;;5000917;28;20200;-80
2024/02/07 13:23:52;;;;;;;7.47;3.03;;;4.60;99.90;;;;;;5001429;28;20204;-81
2024/02/07 13:26:40;;;;;;;6.47;2.93;;;4.70;99.90;;;;;;5001282;28;20225;-82
2024/02/07 13:29:27;;;;;;;8.27;2.80;;;4.60;99.90;;;;;;5015236;28;20224;-80
2024/02/07 13:32:21;;;;;;;7.53;3.17;;;4.50;99.90;;;;;;5014318;28;20282;-80
2024/02/07 13:35:10;;;;;;;8.57;3.00;;;4.50;99.90;;;;;;5000735;28;20219;-80
2024/02/07 13:38:00;;;;;;;7.60;2.97;;;4.50;99.90;;;;;;5001299;28;20203;-82
2024/02/07 13:40:48;;;;;;;7.93;2.73;;;4.50;99.90;;;;;;5013377;28;20202;-81
2024/02/07 13:43:36;;;;;;;9.50;3.27;;;4.50;99.90;;;;;;5013994;28;20207;-80
2024/02/07 13:46:23;;;;;;;5.50;2.97;;;4.50;99.90;;;;;;5013214;28;20203;-79
2024/02/07 13:49:11;;;;;;;11.47;3.57;;;4.40;99.90;;;;;;5013392;28;20200;-79
2024/02/07 13:51:59;;;;;;;7.73;3.37;;;4.40;99.90;;;;;;5000432;28;20207;-79
2024/02/07 13:54:46;;;;;;;5.97;3.50;;;4.50;99.90;;;;;;5013678;28;20233;-80
2024/02/07 13:57:34;;;;;;;11.67;3.53;;;4.50;99.90;;;;;;5014666;28;20829;-81
2024/02/07 14:00:21;;;;;;;11.50;3.30;;;4.40;99.90;;;;;;5014059;28;20192;-79
2024/02/07 14:03:09;;;;;;;6.73;3.87;;;4.40;99.90;;;;;;5012597;28;20278;-78
2024/02/07 14:05:56;;;;;;;7.07;3.73;;;4.30;99.90;;;;;;5012594;28;20231;-78
2024/02/07 14:08:44;;;;;;;12.17;3.60;;;4.30;99.90;;;;;;5000020;28;20207;-78
2024/02/07 14:11:32;;;;;;;8.03;3.53;;;4.30;99.90;;;;;;5014439;28;20216;-80
2024/02/07 14:14:19;;;;;;;7.83;3.43;;;4.30;99.90;;;;;;4999915;28;20219;-79
2024/02/07 14:17:09;;;;;;;8.67;3.67;;;4.40;99.90;;;;;;5014439;28;20196;-80
2024/02/07 14:19:59;;;;;;;10.47;3.73;;;4.40;99.90;;;;;;5013719;28;20426;-79
2024/02/07 14:22:47;;;;;;;10.63;4.00;;;4.30;99.90;;;;;;5014283;28;20196;-80
2024/02/07 14:25:35;;;;;;;7.90;3.50;;;4.30;99.90;;;;;;5013587;28;20196;-79
2024/02/07 14:28:25;;;;;;;9.53;3.63;;;4.40;99.90;;;;;;5013980;28;20301;-84
2024/02/07 14:31:13;;;;;;;6.80;3.50;;;4.30;99.90;;;;;;4999499;28;20211;-83
2024/02/07 14:34:00;;;;;;;8.43;3.77;;;4.30;99.90;;;;;;5013382;28;20217;-80
2024/02/07 14:36:48;;;;;;;10.00;3.83;;;4.30;99.90;;;;;;5014583;28;20645;-80
2024/02/07 14:39:39;;;;;;;8.60;3.80;;;4.30;99.90;;;;;;5014004;28;20280;-82
2024/02/07 14:42:27;;;;;;;7.80;3.87;;;4.30;99.90;;;;;;5012663;28;20233;-81
2024/02/07 14:45:14;;;;;;;9.87;4.07;;;4.30;99.90;;;;;;5012827;28;20247;-82
2024/02/07 14:48:04;;;;;;;6.87;4.17;;;4.30;99.90;;;;;;4999858;28;20205;-81
2024/02/07 14:50:52;;;;;;;7.40;3.73;;;4.30;99.90;;;;;;5012695;28;20669;-83
2024/02/07 14:53:40;;;;;;;7.20;3.57;;;4.40;99.90;;;;;;5013195;28;20216;-81
2024/02/07 14:56:28;;;;;;;8.83;3.87;;;4.40;99.90;;;;;;5012867;28;20253;-81
2024/02/07 14:59:15;;;;;;;8.40;4.00;;;4.40;99.90;;;;;;5013500;28;20218;-82
2024/02/07 15:02:06;;;;;;;12.77;4.00;;;4.40;99.90;;;;;;4998693;28;20294;-81
2024/02/07 15:04:55;;;;;;;14.93;3.97;;;4.40;99.90;;;;;;4998953;28;20208;-81
2024/02/07 15:07:46;;;;;;;7.87;3.77;;;4.40;99.90;;;;;;5012635;28;20211;-81
2024/02/07 15:10:34;;;;;;;5.83;3.70;;;4.30;99.90;;;;;;5013331;28;20201;-80
2024/02/07 15:13:22;;;;;;;8.17;3.30;;;4.40;99.90;;;;;;4999020;28;20740;-83
2024/02/07 15:16:10;;;;;;;9.80;3.90;;;4.40;99.90;;;;;;5013544;28;20193;-82
2024/02/07 15:18:59;;;;;;;10.03;4.13;;;4.20;99.90;;;;;;5012096;28;20572;-82
2024/02/07 15:21:46;;;;;;;9.73;3.27;;;4.40;99.90;;;;;;4997425;28;20669;-82
2024/02/07 15:24:34;;;;;;;3.30;1.87;;;4.40;99.90;;;;;;4997036;28;20295;-81
2024/02/07 15:27:21;;;;;;;3.60;1.60;;;3.90;99.90;;;;;;5013076;28;20215;-83
2024/02/07 15:30:11;;;;;;;2.50;1.40;;;3.60;99.90;;;;;;5011958;28;20311;-82
2024/02/07 15:32:59;;;;;;;2.30;1.20;;;3.30;99.90;;;;;;5011227;28;20324;-80
2024/02/07 15:35:47;;;;;;;2.20;1.40;;;3.10;99.90;;;;;;5012409;28;20252;-82
2024/02/07 15:38:35;;;;;;;1.30;1.10;;;2.90;99.90;;;;;;4997256;28;20224;-81
2024/02/07 15:41:22;;;;;;;1.90;1.37;;;2.50;99.90;;;;;;5012798;28;20188;-81
2024/02/07 15:44:09;;;;;;;2.30;1.20;;;2.30;99.90;;;;;;5011663;28;20196;-81
2024/02/07 15:46:57;;;;;;;1.70;1.50;;;2.30;99.90;;;;;;4997787;28;20226;-82
2024/02/07 15:49:44;;;;;;;2.20;1.33;;;2.30;99.90;;;;;;5011608;28;20327;-79
2024/02/07 15:52:33;;;;;;;3.13;1.53;;;2.50;99.90;;;;;;5011762;28;20195;-80
2024/02/07 15:55:20;;;;;;;3.03;1.50;;;2.30;99.90;;;;;;4996197;28;20688;-81
2024/02/07 15:58:08;;;;;;;1.70;1.40;;;2.30;99.90;;;;;;4998577;28;20230;-82
2024/02/07 16:00:58;;;;;;;3.10;1.57;;;2.40;99.90;;;;;;5011370;28;20198;-82